sensor_id;sensor_type;location;lat;lon;timestamp;P1;durP1;ratioP1;P2;durP2;ratioP2
52031;SDS011;38044;45.148;39.604;2023-04-24T00:00:36;10.85;;;6.63;;
52031;SDS011;38044;45.148;39.604;2023-04-24T00:03:06;9.85;;;6.88;;
52031;SDS011;38044;45.148;39.604;2023-04-24T00:05:32;12.90;;;7.65;;
52031;SDS011;38044;45.148;39.604;2023-04-24T00:07:58;13.68;;;6.97;;
52031;SDS011;38044;45.148;39.604;2023-04-24T00:10:25;11.75;;;6.43;;
52031;SDS011;38044;45.148;39.604;2023-04-24T00:12:51;12.00;;;7.20;;
52031;SDS011;38044;45.148;39.604;2023-04-24T00:15:16;9.43;;;7.05;;
52031;SDS011;38044;45.148;39.604;2023-04-24T00:17:42;13.70;;;7.53;;
52031;SDS011;38044;45.148;39.604;2023-04-24T00:20:08;13.60;;;7.10;;
52031;SDS011;38044;45.148;39.604;2023-04-24T00:22:35;10.20;;;6.78;;
52031;SDS011;38044;45.148;39.604;2023-04-24T00:25:01;11.65;;;6.78;;
52031;SDS011;38044;45.148;39.604;2023-04-24T00:27:27;10.77;;;6.53;;
52031;SDS011;38044;45.148;39.604;2023-04-24T00:29:53;12.27;;;7.47;;
52031;SDS011;38044;45.148;39.604;2023-04-24T00:32:18;9.50;;;6.43;;
52031;SDS011;38044;45.148;39.604;2023-04-24T00:34:44;12.13;;;6.10;;
52031;SDS011;38044;45.148;39.604;2023-04-24T00:37:10;12.65;;;6.35;;
52031;SDS011;38044;45.148;39.604;2023-04-24T00:39:36;9.52;;;6.43;;
52031;SDS011;38044;45.148;39.604;2023-04-24T00:42:02;10.38;;;6.22;;
52031;SDS011;38044;45.148;39.604;2023-04-24T00:44:30;7.65;;;5.70;;
52031;SDS011;38044;45.148;39.604;2023-04-24T00:46:57;10.95;;;6.07;;
52031;SDS011;38044;45.148;39.604;2023-04-24T00:49:25;9.30;;;5.75;;
52031;SDS011;38044;45.148;39.604;2023-04-24T00:51:50;8.20;;;5.90;;
52031;SDS011;38044;45.148;39.604;2023-04-24T00:54:17;10.95;;;6.60;;
52031;SDS011;38044;45.148;39.604;2023-04-24T00:56:43;9.80;;;6.00;;
52031;SDS011;38044;45.148;39.604;2023-04-24T00:59:11;11.75;;;6.07;;
52031;SDS011;38044;45.148;39.604;2023-04-24T01:01:37;11.73;;;6.28;;
52031;SDS011;38044;45.148;39.604;2023-04-24T01:04:07;11.50;;;6.60;;
52031;SDS011;38044;45.148;39.604;2023-04-24T01:06:35;10.43;;;6.47;;
52031;SDS011;38044;45.148;39.604;2023-04-24T01:09:04;12.48;;;6.55;;
52031;SDS011;38044;45.148;39.604;2023-04-24T01:11:31;11.50;;;6.40;;
52031;SDS011;38044;45.148;39.604;2023-04-24T01:13:57;9.10;;;6.00;;
52031;SDS011;38044;45.148;39.604;2023-04-24T01:16:24;12.02;;;6.75;;
52031;SDS011;38044;45.148;39.604;2023-04-24T01:18:50;12.38;;;6.63;;
52031;SDS011;38044;45.148;39.604;2023-04-24T01:21:16;11.68;;;6.07;;
52031;SDS011;38044;45.148;39.604;2023-04-24T01:23:44;11.68;;;7.15;;
52031;SDS011;38044;45.148;39.604;2023-04-24T01:26:11;10.68;;;6.53;;
52031;SDS011;38044;45.148;39.604;2023-04-24T01:28:38;9.75;;;6.43;;
52031;SDS011;38044;45.148;39.604;2023-04-24T01:31:03;9.50;;;6.22;;
52031;SDS011;38044;45.148;39.604;2023-04-24T01:33:29;10.90;;;6.70;;
52031;SDS011;38044;45.148;39.604;2023-04-24T01:35:55;9.27;;;6.70;;
52031;SDS011;38044;45.148;39.604;2023-04-24T01:38:22;11.48;;;6.57;;
52031;SDS011;38044;45.148;39.604;2023-04-24T01:40:49;12.68;;;6.78;;
52031;SDS011;38044;45.148;39.604;2023-04-24T01:43:16;12.35;;;6.47;;
52031;SDS011;38044;45.148;39.604;2023-04-24T01:45:43;10.43;;;5.78;;
52031;SDS011;38044;45.148;39.604;2023-04-24T01:48:08;8.68;;;5.63;;
52031;SDS011;38044;45.148;39.604;2023-04-24T01:50:34;9.73;;;5.90;;
52031;SDS011;38044;45.148;39.604;2023-04-24T01:53:00;8.93;;;5.35;;
52031;SDS011;38044;45.148;39.604;2023-04-24T01:55:27;8.52;;;5.65;;
52031;SDS011;38044;45.148;39.604;2023-04-24T01:57:52;8.85;;;5.53;;
52031;SDS011;38044;45.148;39.604;2023-04-24T02:00:20;8.88;;;5.20;;
52031;SDS011;38044;45.148;39.604;2023-04-24T02:02:46;11.23;;;5.28;;
52031;SDS011;38044;45.148;39.604;2023-04-24T02:05:12;9.77;;;5.35;;
52031;SDS011;38044;45.148;39.604;2023-04-24T02:07:38;7.78;;;4.90;;
52031;SDS011;38044;45.148;39.604;2023-04-24T02:10:04;7.88;;;4.88;;
52031;SDS011;38044;45.148;39.604;2023-04-24T02:12:30;7.88;;;4.10;;
52031;SDS011;38044;45.148;39.604;2023-04-24T02:14:59;8.73;;;4.28;;
52031;SDS011;38044;45.148;39.604;2023-04-24T02:17:25;5.90;;;3.75;;
52031;SDS011;38044;45.148;39.604;2023-04-24T02:19:51;6.63;;;4.25;;
52031;SDS011;38044;45.148;39.604;2023-04-24T02:22:16;7.57;;;4.00;;
52031;SDS011;38044;45.148;39.604;2023-04-24T02:24:42;6.78;;;4.07;;
52031;SDS011;38044;45.148;39.604;2023-04-24T02:27:08;5.53;;;3.83;;
52031;SDS011;38044;45.148;39.604;2023-04-24T02:29:34;6.78;;;3.90;;
52031;SDS011;38044;45.148;39.604;2023-04-24T02:32:00;7.50;;;3.75;;
52031;SDS011;38044;45.148;39.604;2023-04-24T02:34:26;7.25;;;4.35;;
52031;SDS011;38044;45.148;39.604;2023-04-24T02:36:52;7.68;;;3.80;;
52031;SDS011;38044;45.148;39.604;2023-04-24T02:39:19;7.47;;;4.53;;
52031;SDS011;38044;45.148;39.604;2023-04-24T02:41:45;9.77;;;3.90;;
52031;SDS011;38044;45.148;39.604;2023-04-24T02:44:11;8.32;;;4.00;;
52031;SDS011;38044;45.148;39.604;2023-04-24T02:46:37;8.48;;;4.15;;
52031;SDS011;38044;45.148;39.604;2023-04-24T02:49:03;6.93;;;4.03;;
52031;SDS011;38044;45.148;39.604;2023-04-24T02:51:29;8.73;;;4.15;;
52031;SDS011;38044;45.148;39.604;2023-04-24T02:53:54;5.30;;;3.70;;
52031;SDS011;38044;45.148;39.604;2023-04-24T02:56:20;8.77;;;3.95;;
52031;SDS011;38044;45.148;39.604;2023-04-24T02:58:46;7.88;;;3.90;;
52031;SDS011;38044;45.148;39.604;2023-04-24T03:01:12;9.40;;;4.22;;
52031;SDS011;38044;45.148;39.604;2023-04-24T03:03:38;6.72;;;3.70;;
52031;SDS011;38044;45.148;39.604;2023-04-24T03:06:05;7.38;;;4.07;;
52031;SDS011;38044;45.148;39.604;2023-04-24T03:08:31;9.00;;;3.92;;
52031;SDS011;38044;45.148;39.604;2023-04-24T03:10:57;8.30;;;4.15;;
52031;SDS011;38044;45.148;39.604;2023-04-24T03:13:23;9.40;;;4.00;;
52031;SDS011;38044;45.148;39.604;2023-04-24T03:15:49;7.03;;;4.00;;
52031;SDS011;38044;45.148;39.604;2023-04-24T03:18:15;13.23;;;4.32;;
52031;SDS011;38044;45.148;39.604;2023-04-24T03:20:40;9.68;;;3.80;;
52031;SDS011;38044;45.148;39.604;2023-04-24T03:23:06;5.63;;;3.65;;
52031;SDS011;38044;45.148;39.604;2023-04-24T03:25:32;7.93;;;3.80;;
52031;SDS011;38044;45.148;39.604;2023-04-24T03:27:58;7.35;;;3.10;;
52031;SDS011;38044;45.148;39.604;2023-04-24T03:30:24;7.30;;;3.72;;
52031;SDS011;38044;45.148;39.604;2023-04-24T03:32:49;7.93;;;3.50;;
52031;SDS011;38044;45.148;39.604;2023-04-24T03:35:15;11.45;;;3.50;;
52031;SDS011;38044;45.148;39.604;2023-04-24T03:37:41;8.88;;;3.40;;
52031;SDS011;38044;45.148;39.604;2023-04-24T03:40:07;7.57;;;3.65;;
52031;SDS011;38044;45.148;39.604;2023-04-24T03:42:33;7.45;;;3.10;;
52031;SDS011;38044;45.148;39.604;2023-04-24T03:44:59;6.65;;;2.92;;
52031;SDS011;38044;45.148;39.604;2023-04-24T03:47:25;6.03;;;2.90;;
52031;SDS011;38044;45.148;39.604;2023-04-24T03:49:50;5.63;;;3.13;;
52031;SDS011;38044;45.148;39.604;2023-04-24T03:52:17;7.38;;;3.08;;
52031;SDS011;38044;45.148;39.604;2023-04-24T03:54:43;6.90;;;2.92;;
52031;SDS011;38044;45.148;39.604;2023-04-24T03:57:12;7.03;;;3.35;;
52031;SDS011;38044;45.148;39.604;2023-04-24T03:59:47;5.57;;;2.80;;
52031;SDS011;38044;45.148;39.604;2023-04-24T04:02:12;8.88;;;2.85;;
52031;SDS011;38044;45.148;39.604;2023-04-24T04:04:38;6.75;;;2.97;;
52031;SDS011;38044;45.148;39.604;2023-04-24T04:07:04;4.05;;;2.50;;
52031;SDS011;38044;45.148;39.604;2023-04-24T04:09:30;5.22;;;2.53;;
52031;SDS011;38044;45.148;39.604;2023-04-24T04:11:57;5.68;;;2.22;;
52031;SDS011;38044;45.148;39.604;2023-04-24T04:14:22;6.30;;;2.92;;
52031;SDS011;38044;45.148;39.604;2023-04-24T04:16:48;5.35;;;2.70;;
52031;SDS011;38044;45.148;39.604;2023-04-24T04:19:14;18.73;;;4.05;;
52031;SDS011;38044;45.148;39.604;2023-04-24T04:21:40;4.00;;;2.92;;
52031;SDS011;38044;45.148;39.604;2023-04-24T04:24:06;7.70;;;3.55;;
52031;SDS011;38044;45.148;39.604;2023-04-24T04:26:32;127.10;;;13.43;;
52031;SDS011;38044;45.148;39.604;2023-04-24T04:28:58;7.22;;;3.28;;
52031;SDS011;38044;45.148;39.604;2023-04-24T04:31:25;5.85;;;3.55;;
52031;SDS011;38044;45.148;39.604;2023-04-24T04:33:51;7.35;;;3.42;;
52031;SDS011;38044;45.148;39.604;2023-04-24T04:36:17;4.72;;;3.20;;
52031;SDS011;38044;45.148;39.604;2023-04-24T04:38:43;4.13;;;2.83;;
52031;SDS011;38044;45.148;39.604;2023-04-24T04:41:10;9.55;;;3.20;;
52031;SDS011;38044;45.148;39.604;2023-04-24T04:43:36;7.43;;;3.10;;
52031;SDS011;38044;45.148;39.604;2023-04-24T04:46:03;4.85;;;3.50;;
52031;SDS011;38044;45.148;39.604;2023-04-24T04:48:29;6.13;;;3.22;;
52031;SDS011;38044;45.148;39.604;2023-04-24T04:50:56;6.72;;;3.03;;
52031;SDS011;38044;45.148;39.604;2023-04-24T04:53:23;9.80;;;3.28;;
52031;SDS011;38044;45.148;39.604;2023-04-24T04:55:49;5.22;;;3.53;;
52031;SDS011;38044;45.148;39.604;2023-04-24T04:58:15;6.30;;;3.55;;
52031;SDS011;38044;45.148;39.604;2023-04-24T05:00:40;5.45;;;3.08;;
52031;SDS011;38044;45.148;39.604;2023-04-24T05:03:06;5.90;;;3.40;;
52031;SDS011;38044;45.148;39.604;2023-04-24T05:05:32;4.00;;;2.85;;
52031;SDS011;38044;45.148;39.604;2023-04-24T05:07:58;6.38;;;2.92;;
52031;SDS011;38044;45.148;39.604;2023-04-24T05:10:24;5.10;;;2.75;;
52031;SDS011;38044;45.148;39.604;2023-04-24T05:12:50;4.72;;;3.08;;
52031;SDS011;38044;45.148;39.604;2023-04-24T05:15:16;5.90;;;3.13;;
52031;SDS011;38044;45.148;39.604;2023-04-24T05:17:42;4.85;;;3.15;;
52031;SDS011;38044;45.148;39.604;2023-04-24T05:20:08;3.50;;;2.53;;
52031;SDS011;38044;45.148;39.604;2023-04-24T05:22:34;6.63;;;2.72;;
52031;SDS011;38044;45.148;39.604;2023-04-24T05:25:01;6.78;;;3.08;;
52031;SDS011;38044;45.148;39.604;2023-04-24T05:27:27;4.03;;;2.55;;
52031;SDS011;38044;45.148;39.604;2023-04-24T05:29:53;4.40;;;2.78;;
52031;SDS011;38044;45.148;39.604;2023-04-24T05:32:19;4.30;;;2.60;;
52031;SDS011;38044;45.148;39.604;2023-04-24T05:34:45;2.97;;;2.40;;
52031;SDS011;38044;45.148;39.604;2023-04-24T05:37:11;7.05;;;2.78;;
52031;SDS011;38044;45.148;39.604;2023-04-24T05:39:37;4.43;;;2.88;;
52031;SDS011;38044;45.148;39.604;2023-04-24T05:42:03;5.75;;;2.75;;
52031;SDS011;38044;45.148;39.604;2023-04-24T05:44:30;7.38;;;2.85;;
52031;SDS011;38044;45.148;39.604;2023-04-24T05:46:56;4.43;;;2.70;;
52031;SDS011;38044;45.148;39.604;2023-04-24T05:49:22;3.53;;;2.60;;
52031;SDS011;38044;45.148;39.604;2023-04-24T05:51:48;6.35;;;2.80;;
52031;SDS011;38044;45.148;39.604;2023-04-24T05:54:13;7.03;;;3.03;;
52031;SDS011;38044;45.148;39.604;2023-04-24T05:56:40;7.88;;;3.35;;
52031;SDS011;38044;45.148;39.604;2023-04-24T05:59:06;8.13;;;2.83;;
52031;SDS011;38044;45.148;39.604;2023-04-24T06:01:33;7.13;;;2.97;;
52031;SDS011;38044;45.148;39.604;2023-04-24T06:03:58;4.90;;;2.80;;
52031;SDS011;38044;45.148;39.604;2023-04-24T06:06:25;6.40;;;3.03;;
52031;SDS011;38044;45.148;39.604;2023-04-24T06:08:52;6.93;;;3.00;;
52031;SDS011;38044;45.148;39.604;2023-04-24T06:11:18;6.38;;;3.30;;
52031;SDS011;38044;45.148;39.604;2023-04-24T06:13:44;5.72;;;2.92;;
52031;SDS011;38044;45.148;39.604;2023-04-24T06:16:10;4.65;;;3.15;;
52031;SDS011;38044;45.148;39.604;2023-04-24T06:18:36;6.40;;;3.20;;
52031;SDS011;38044;45.148;39.604;2023-04-24T06:21:02;6.18;;;3.08;;
52031;SDS011;38044;45.148;39.604;2023-04-24T06:23:28;7.57;;;2.45;;
52031;SDS011;38044;45.148;39.604;2023-04-24T06:25:54;13.88;;;3.17;;
52031;SDS011;38044;45.148;39.604;2023-04-24T06:28:20;8.90;;;3.30;;
52031;SDS011;38044;45.148;39.604;2023-04-24T06:30:46;7.72;;;3.08;;
52031;SDS011;38044;45.148;39.604;2023-04-24T06:33:12;6.32;;;2.80;;
52031;SDS011;38044;45.148;39.604;2023-04-24T06:35:37;5.60;;;3.25;;
52031;SDS011;38044;45.148;39.604;2023-04-24T06:38:03;6.45;;;5.28;;
52031;SDS011;38044;45.148;39.604;2023-04-24T06:40:29;4.78;;;2.78;;
52031;SDS011;38044;45.148;39.604;2023-04-24T06:42:55;5.57;;;2.95;;
52031;SDS011;38044;45.148;39.604;2023-04-24T06:45:22;5.15;;;3.00;;
52031;SDS011;38044;45.148;39.604;2023-04-24T06:47:48;8.93;;;3.42;;
52031;SDS011;38044;45.148;39.604;2023-04-24T06:50:14;5.75;;;3.30;;
52031;SDS011;38044;45.148;39.604;2023-04-24T06:52:40;13.63;;;7.57;;
52031;SDS011;38044;45.148;39.604;2023-04-24T06:55:06;16.10;;;5.32;;
52031;SDS011;38044;45.148;39.604;2023-04-24T06:57:32;7.95;;;5.10;;
52031;SDS011;38044;45.148;39.604;2023-04-24T06:59:58;10.63;;;5.13;;
52031;SDS011;38044;45.148;39.604;2023-04-24T07:02:24;8.85;;;5.55;;
52031;SDS011;38044;45.148;39.604;2023-04-24T07:04:50;18.13;;;10.88;;
52031;SDS011;38044;45.148;39.604;2023-04-24T07:07:16;37.30;;;22.45;;
52031;SDS011;38044;45.148;39.604;2023-04-24T07:09:42;10.07;;;5.78;;
52031;SDS011;38044;45.148;39.604;2023-04-24T07:12:09;8.70;;;4.57;;
52031;SDS011;38044;45.148;39.604;2023-04-24T07:14:36;11.70;;;4.55;;
52031;SDS011;38044;45.148;39.604;2023-04-24T07:17:05;9.85;;;4.55;;
52031;SDS011;38044;45.148;39.604;2023-04-24T07:19:31;6.70;;;4.25;;
52031;SDS011;38044;45.148;39.604;2023-04-24T07:21:59;17.13;;;11.30;;
52031;SDS011;38044;45.148;39.604;2023-04-24T07:24:25;11.18;;;6.88;;
52031;SDS011;38044;45.148;39.604;2023-04-24T07:26:51;11.18;;;5.22;;
52031;SDS011;38044;45.148;39.604;2023-04-24T07:29:17;6.35;;;3.72;;
52031;SDS011;38044;45.148;39.604;2023-04-24T07:31:44;28.10;;;17.42;;
52031;SDS011;38044;45.148;39.604;2023-04-24T07:34:10;18.80;;;12.20;;
52031;SDS011;38044;45.148;39.604;2023-04-24T07:36:36;15.70;;;12.93;;
52031;SDS011;38044;45.148;39.604;2023-04-24T07:39:03;7.65;;;5.53;;
52031;SDS011;38044;45.148;39.604;2023-04-24T07:41:31;7.00;;;4.10;;
52031;SDS011;38044;45.148;39.604;2023-04-24T07:43:57;13.73;;;9.75;;
52031;SDS011;38044;45.148;39.604;2023-04-24T07:46:23;9.05;;;6.85;;
52031;SDS011;38044;45.148;39.604;2023-04-24T07:48:50;18.73;;;16.23;;
52031;SDS011;38044;45.148;39.604;2023-04-24T07:51:16;15.07;;;12.77;;
52031;SDS011;38044;45.148;39.604;2023-04-24T07:53:42;10.65;;;7.55;;
52031;SDS011;38044;45.148;39.604;2023-04-24T07:56:08;11.27;;;6.95;;
52031;SDS011;38044;45.148;39.604;2023-04-24T07:58:34;8.13;;;6.13;;
52031;SDS011;38044;45.148;39.604;2023-04-24T08:01:00;11.55;;;8.02;;
52031;SDS011;38044;45.148;39.604;2023-04-24T08:03:26;13.02;;;6.43;;
52031;SDS011;38044;45.148;39.604;2023-04-24T08:05:52;15.23;;;9.05;;
52031;SDS011;38044;45.148;39.604;2023-04-24T08:08:20;8.88;;;4.60;;
52031;SDS011;38044;45.148;39.604;2023-04-24T08:10:47;7.47;;;4.03;;
52031;SDS011;38044;45.148;39.604;2023-04-24T08:13:14;14.63;;;7.20;;
52031;SDS011;38044;45.148;39.604;2023-04-24T08:15:40;13.75;;;5.85;;
52031;SDS011;38044;45.148;39.604;2023-04-24T08:18:05;6.97;;;4.15;;
52031;SDS011;38044;45.148;39.604;2023-04-24T08:20:31;8.82;;;4.00;;
52031;SDS011;38044;45.148;39.604;2023-04-24T08:22:57;7.18;;;4.30;;
52031;SDS011;38044;45.148;39.604;2023-04-24T08:25:23;7.10;;;4.35;;
52031;SDS011;38044;45.148;39.604;2023-04-24T08:27:50;5.95;;;3.85;;
52031;SDS011;38044;45.148;39.604;2023-04-24T08:30:16;7.03;;;3.78;;
52031;SDS011;38044;45.148;39.604;2023-04-24T08:32:43;5.72;;;4.10;;
52031;SDS011;38044;45.148;39.604;2023-04-24T08:35:09;4.82;;;3.97;;
52031;SDS011;38044;45.148;39.604;2023-04-24T08:37:35;6.72;;;4.28;;
52031;SDS011;38044;45.148;39.604;2023-04-24T08:40:06;9.30;;;5.03;;
52031;SDS011;38044;45.148;39.604;2023-04-24T08:42:38;7.30;;;4.43;;
52031;SDS011;38044;45.148;39.604;2023-04-24T08:45:06;8.80;;;4.65;;
52031;SDS011;38044;45.148;39.604;2023-04-24T08:47:32;6.18;;;4.90;;
52031;SDS011;38044;45.148;39.604;2023-04-24T08:50:00;8.38;;;5.38;;
52031;SDS011;38044;45.148;39.604;2023-04-24T08:52:28;8.60;;;6.07;;
52031;SDS011;38044;45.148;39.604;2023-04-24T08:54:55;7.03;;;4.82;;
52031;SDS011;38044;45.148;39.604;2023-04-24T08:57:22;6.50;;;4.40;;
52031;SDS011;38044;45.148;39.604;2023-04-24T08:59:49;6.80;;;4.40;;
52031;SDS011;38044;45.148;39.604;2023-04-24T09:02:15;6.85;;;4.55;;
52031;SDS011;38044;45.148;39.604;2023-04-24T09:04:42;9.68;;;6.03;;
52031;SDS011;38044;45.148;39.604;2023-04-24T09:07:09;10.82;;;6.72;;
52031;SDS011;38044;45.148;39.604;2023-04-24T09:09:37;7.68;;;5.45;;
52031;SDS011;38044;45.148;39.604;2023-04-24T09:12:04;8.27;;;5.13;;
52031;SDS011;38044;45.148;39.604;2023-04-24T09:14:30;8.60;;;5.43;;
52031;SDS011;38044;45.148;39.604;2023-04-24T09:16:57;10.98;;;5.45;;
52031;SDS011;38044;45.148;39.604;2023-04-24T09:19:23;9.60;;;5.30;;
52031;SDS011;38044;45.148;39.604;2023-04-24T09:21:49;9.30;;;5.35;;
52031;SDS011;38044;45.148;39.604;2023-04-24T09:24:18;6.13;;;5.28;;
52031;SDS011;38044;45.148;39.604;2023-04-24T09:26:47;8.10;;;5.25;;
52031;SDS011;38044;45.148;39.604;2023-04-24T09:29:15;8.15;;;6.28;;
52031;SDS011;38044;45.148;39.604;2023-04-24T09:31:45;8.23;;;5.90;;
52031;SDS011;38044;45.148;39.604;2023-04-24T09:34:11;10.88;;;5.28;;
52031;SDS011;38044;45.148;39.604;2023-04-24T09:36:38;8.52;;;5.53;;
52031;SDS011;38044;45.148;39.604;2023-04-24T09:39:09;7.60;;;5.72;;
52031;SDS011;38044;45.148;39.604;2023-04-24T09:44:16;11.38;;;6.40;;
52031;SDS011;38044;45.148;39.604;2023-04-24T09:49:15;9.00;;;5.50;;
52031;SDS011;38044;45.148;39.604;2023-04-24T09:51:42;11.05;;;6.28;;
52031;SDS011;38044;45.148;39.604;2023-04-24T09:54:15;10.30;;;6.80;;
52031;SDS011;38044;45.148;39.604;2023-04-24T09:56:50;15.02;;;8.50;;
52031;SDS011;38044;45.148;39.604;2023-04-24T09:59:17;13.02;;;8.07;;
52031;SDS011;38044;45.148;39.604;2023-04-24T10:01:44;11.85;;;8.10;;
52031;SDS011;38044;45.148;39.604;2023-04-24T10:04:17;11.57;;;7.72;;
52031;SDS011;38044;45.148;39.604;2023-04-24T10:06:49;13.23;;;7.65;;
52031;SDS011;38044;45.148;39.604;2023-04-24T10:09:16;9.48;;;7.32;;
52031;SDS011;38044;45.148;39.604;2023-04-24T10:11:46;12.75;;;6.97;;
52031;SDS011;38044;45.148;39.604;2023-04-24T10:14:17;14.55;;;6.70;;
52031;SDS011;38044;45.148;39.604;2023-04-24T10:16:46;11.57;;;7.90;;
52031;SDS011;38044;45.148;39.604;2023-04-24T10:19:13;12.40;;;7.90;;
52031;SDS011;38044;45.148;39.604;2023-04-24T10:21:40;12.55;;;9.57;;
52031;SDS011;38044;45.148;39.604;2023-04-24T10:24:18;16.20;;;10.48;;
52031;SDS011;38044;45.148;39.604;2023-04-24T10:26:46;17.40;;;11.75;;
52031;SDS011;38044;45.148;39.604;2023-04-24T10:29:14;18.98;;;15.07;;
52031;SDS011;38044;45.148;39.604;2023-04-24T10:31:42;25.20;;;17.35;;
52031;SDS011;38044;45.148;39.604;2023-04-24T10:34:10;15.10;;;10.05;;
52031;SDS011;38044;45.148;39.604;2023-04-24T10:36:41;15.80;;;9.10;;
52031;SDS011;38044;45.148;39.604;2023-04-24T10:39:18;13.30;;;8.38;;
52031;SDS011;38044;45.148;39.604;2023-04-24T10:41:46;17.15;;;9.57;;
52031;SDS011;38044;45.148;39.604;2023-04-24T10:44:15;14.45;;;8.82;;
52031;SDS011;38044;45.148;39.604;2023-04-24T10:46:45;13.63;;;8.93;;
52031;SDS011;38044;45.148;39.604;2023-04-24T10:49:17;13.93;;;9.48;;
52031;SDS011;38044;45.148;39.604;2023-04-24T10:51:58;21.10;;;11.82;;
52031;SDS011;38044;45.148;39.604;2023-04-24T10:54:29;17.30;;;11.80;;
52031;SDS011;38044;45.148;39.604;2023-04-24T10:59:46;21.27;;;12.88;;
52031;SDS011;38044;45.148;39.604;2023-04-24T11:02:16;19.40;;;12.85;;
52031;SDS011;38044;45.148;39.604;2023-04-24T11:04:43;19.08;;;11.90;;
52031;SDS011;38044;45.148;39.604;2023-04-24T11:07:10;17.48;;;12.07;;
52031;SDS011;38044;45.148;39.604;2023-04-24T11:09:37;19.83;;;12.60;;
52031;SDS011;38044;45.148;39.604;2023-04-24T11:12:09;18.02;;;10.80;;
52031;SDS011;38044;45.148;39.604;2023-04-24T11:20:22;16.85;;;9.63;;
52031;SDS011;38044;45.148;39.604;2023-04-24T11:22:51;15.35;;;10.00;;
52031;SDS011;38044;45.148;39.604;2023-04-24T11:25:19;13.88;;;9.90;;
52031;SDS011;38044;45.148;39.604;2023-04-24T11:27:47;14.10;;;10.60;;
52031;SDS011;38044;45.148;39.604;2023-04-24T11:30:18;18.08;;;11.75;;
52031;SDS011;38044;45.148;39.604;2023-04-24T11:32:48;16.75;;;10.07;;
52031;SDS011;38044;45.148;39.604;2023-04-24T11:35:17;16.40;;;10.90;;
52031;SDS011;38044;45.148;39.604;2023-04-24T11:37:45;15.30;;;11.57;;
52031;SDS011;38044;45.148;39.604;2023-04-24T11:40:14;18.58;;;11.82;;
52031;SDS011;38044;45.148;39.604;2023-04-24T11:42:45;21.73;;;12.15;;
52031;SDS011;38044;45.148;39.604;2023-04-24T11:45:16;16.85;;;12.20;;
52031;SDS011;38044;45.148;39.604;2023-04-24T11:47:43;14.13;;;10.48;;
52031;SDS011;38044;45.148;39.604;2023-04-24T11:50:19;17.17;;;11.23;;
52031;SDS011;38044;45.148;39.604;2023-04-24T11:52:47;15.73;;;11.52;;
52031;SDS011;38044;45.148;39.604;2023-04-24T11:57:44;18.63;;;11.75;;
52031;SDS011;38044;45.148;39.604;2023-04-24T12:00:18;17.48;;;12.35;;
52031;SDS011;38044;45.148;39.604;2023-04-24T12:02:47;19.48;;;11.77;;
52031;SDS011;38044;45.148;39.604;2023-04-24T12:05:21;17.17;;;12.20;;
52031;SDS011;38044;45.148;39.604;2023-04-24T12:07:52;22.58;;;12.75;;
52031;SDS011;38044;45.148;39.604;2023-04-24T12:10:25;19.67;;;11.48;;
52031;SDS011;38044;45.148;39.604;2023-04-24T12:12:53;19.92;;;11.40;;
52031;SDS011;38044;45.148;39.604;2023-04-24T12:15:20;21.27;;;11.93;;
52031;SDS011;38044;45.148;39.604;2023-04-24T12:17:47;22.02;;;12.48;;
52031;SDS011;38044;45.148;39.604;2023-04-24T12:20:13;16.60;;;11.32;;
52031;SDS011;38044;45.148;39.604;2023-04-24T12:22:43;26.58;;;13.18;;
52031;SDS011;38044;45.148;39.604;2023-04-24T12:25:13;24.13;;;12.73;;
52031;SDS011;38044;45.148;39.604;2023-04-24T12:27:44;19.23;;;12.23;;
52031;SDS011;38044;45.148;39.604;2023-04-24T12:30:12;17.83;;;12.55;;
52031;SDS011;38044;45.148;39.604;2023-04-24T12:32:47;20.35;;;12.18;;
52031;SDS011;38044;45.148;39.604;2023-04-24T12:35:14;19.95;;;12.00;;
52031;SDS011;38044;45.148;39.604;2023-04-24T12:37:45;17.98;;;12.15;;
52031;SDS011;38044;45.148;39.604;2023-04-24T12:40:12;23.05;;;12.98;;
52031;SDS011;38044;45.148;39.604;2023-04-24T12:42:42;24.92;;;14.60;;
52031;SDS011;38044;45.148;39.604;2023-04-24T12:45:10;22.13;;;12.93;;
52031;SDS011;38044;45.148;39.604;2023-04-24T12:47:37;18.85;;;12.75;;
52031;SDS011;38044;45.148;39.604;2023-04-24T12:50:04;20.20;;;13.02;;
52031;SDS011;38044;45.148;39.604;2023-04-24T12:52:31;20.30;;;13.63;;
52031;SDS011;38044;45.148;39.604;2023-04-24T12:54:58;24.45;;;13.68;;
52031;SDS011;38044;45.148;39.604;2023-04-24T12:57:26;20.10;;;13.55;;
52031;SDS011;38044;45.148;39.604;2023-04-24T12:59:57;22.27;;;15.00;;
52031;SDS011;38044;45.148;39.604;2023-04-24T13:02:24;22.65;;;14.35;;
52031;SDS011;38044;45.148;39.604;2023-04-24T13:04:52;24.95;;;14.20;;
52031;SDS011;38044;45.148;39.604;2023-04-24T13:07:19;27.13;;;15.93;;
52031;SDS011;38044;45.148;39.604;2023-04-24T13:09:44;23.83;;;14.88;;
52031;SDS011;38044;45.148;39.604;2023-04-24T13:12:11;20.75;;;14.52;;
52031;SDS011;38044;45.148;39.604;2023-04-24T13:14:37;23.30;;;15.25;;
52031;SDS011;38044;45.148;39.604;2023-04-24T13:17:03;25.65;;;16.38;;
52031;SDS011;38044;45.148;39.604;2023-04-24T13:19:34;22.88;;;15.57;;
52031;SDS011;38044;45.148;39.604;2023-04-24T13:22:01;23.95;;;15.60;;
52031;SDS011;38044;45.148;39.604;2023-04-24T13:24:28;21.20;;;14.88;;
52031;SDS011;38044;45.148;39.604;2023-04-24T13:26:54;21.25;;;15.43;;
52031;SDS011;38044;45.148;39.604;2023-04-24T13:29:21;24.20;;;15.63;;
52031;SDS011;38044;45.148;39.604;2023-04-24T13:31:49;22.40;;;15.65;;
52031;SDS011;38044;45.148;39.604;2023-04-24T13:34:16;23.25;;;16.45;;
52031;SDS011;38044;45.148;39.604;2023-04-24T13:36:43;23.50;;;15.48;;
52031;SDS011;38044;45.148;39.604;2023-04-24T13:39:09;21.65;;;14.90;;
52031;SDS011;38044;45.148;39.604;2023-04-24T13:41:35;21.25;;;15.07;;
52031;SDS011;38044;45.148;39.604;2023-04-24T13:44:02;24.38;;;15.77;;
52031;SDS011;38044;45.148;39.604;2023-04-24T13:46:28;24.10;;;16.27;;
52031;SDS011;38044;45.148;39.604;2023-04-24T13:48:54;21.67;;;15.85;;
52031;SDS011;38044;45.148;39.604;2023-04-24T13:51:22;18.75;;;15.00;;
52031;SDS011;38044;45.148;39.604;2023-04-24T13:53:48;22.85;;;15.35;;
52031;SDS011;38044;45.148;39.604;2023-04-24T13:56:14;25.35;;;16.52;;
52031;SDS011;38044;45.148;39.604;2023-04-24T13:58:40;20.95;;;15.18;;
52031;SDS011;38044;45.148;39.604;2023-04-24T14:01:06;23.30;;;16.23;;
52031;SDS011;38044;45.148;39.604;2023-04-24T14:03:33;21.40;;;16.73;;
52031;SDS011;38044;45.148;39.604;2023-04-24T14:05:59;20.83;;;15.90;;
52031;SDS011;38044;45.148;39.604;2023-04-24T14:08:25;20.45;;;15.27;;
52031;SDS011;38044;45.148;39.604;2023-04-24T14:10:51;21.48;;;15.60;;
52031;SDS011;38044;45.148;39.604;2023-04-24T14:13:17;21.02;;;15.77;;
52031;SDS011;38044;45.148;39.604;2023-04-24T14:15:42;22.40;;;15.63;;
52031;SDS011;38044;45.148;39.604;2023-04-24T14:18:08;21.33;;;15.00;;
52031;SDS011;38044;45.148;39.604;2023-04-24T14:20:34;21.27;;;15.80;;
52031;SDS011;38044;45.148;39.604;2023-04-24T14:23:00;20.27;;;14.75;;
52031;SDS011;38044;45.148;39.604;2023-04-24T14:25:26;22.02;;;15.32;;
52031;SDS011;38044;45.148;39.604;2023-04-24T14:27:52;24.20;;;16.88;;
52031;SDS011;38044;45.148;39.604;2023-04-24T14:30:18;27.95;;;17.10;;
52031;SDS011;38044;45.148;39.604;2023-04-24T14:32:44;34.90;;;18.27;;
52031;SDS011;38044;45.148;39.604;2023-04-24T14:35:11;26.73;;;17.65;;
52031;SDS011;38044;45.148;39.604;2023-04-24T14:37:37;30.40;;;18.15;;